Time;durP1;ratioP1;P1;durP2;ratioP2;P2;SDS_P1;SDS_P2;PMS_P1;PMS_P2;Temp;Humidity;BMP_temperature;BMP_pressure;BME280_temperature;BME280_humidity;BME280_pressure;Samples;Min_cycle;Max_cycle;Signal;HPM_P1;HPM_P2
2022/04/08 00:00:58;;;;;;;1.63;0.80;;;6.70;99.90;;;;;;5078344;28;20186;-66
2022/04/08 00:03:27;;;;;;;1.90;1.03;;;6.70;99.90;;;;;;5067918;28;20208;-66
2022/04/08 00:05:54;;;;;;;2.33;0.90;;;6.70;99.90;;;;;;5066416;28;20701;-68
2022/04/08 00:08:20;;;;;;;2.20;1.30;;;6.70;99.90;;;;;;5073686;28;20201;-67
2022/04/08 00:10:46;;;;;;;1.73;1.10;;;6.70;99.90;;;;;;5067252;28;20200;-68
2022/04/08 00:13:12;;;;;;;2.13;0.90;;;6.70;99.90;;;;;;5071751;28;20189;-67
2022/04/08 00:15:38;;;;;;;2.93;1.40;;;6.70;99.90;;;;;;5075235;28;20733;-68
2022/04/08 00:18:04;;;;;;;2.03;1.07;;;6.70;99.90;;;;;;5071682;28;20174;-67
2022/04/08 00:20:32;;;;;;;1.80;1.10;;;6.70;99.90;;;;;;5079536;28;20257;-67
2022/04/08 00:22:58;;;;;;;1.20;1.03;;;6.70;99.90;;;;;;5074336;28;20304;-67
2022/04/08 00:25:24;;;;;;;1.20;1.00;;;6.70;99.90;;;;;;5069388;28;20169;-67
2022/04/08 00:27:50;;;;;;;2.63;0.87;;;6.60;99.90;;;;;;5071209;28;20194;-68
2022/04/08 00:30:15;;;;;;;2.17;0.83;;;6.60;99.90;;;;;;5074648;28;20178;-67
2022/04/08 00:32:41;;;;;;;1.47;0.80;;;6.50;99.90;;;;;;5070399;28;20196;-66
2022/04/08 00:35:08;;;;;;;2.00;1.37;;;6.40;99.90;;;;;;5073305;28;20193;-66
2022/04/08 00:37:34;;;;;;;1.33;0.90;;;6.40;99.90;;;;;;5073813;28;20593;-67
2022/04/08 00:40:01;;;;;;;1.80;1.00;;;6.30;99.90;;;;;;5071324;28;20216;-65
2022/04/08 00:42:26;;;;;;;3.40;1.17;;;6.40;99.90;;;;;;5074993;28;20190;-67
2022/04/08 00:44:52;;;;;;;2.47;1.10;;;6.40;99.90;;;;;;5073674;28;21325;-68
2022/04/08 00:47:18;;;;;;;1.33;0.80;;;6.40;99.90;;;;;;5073771;28;20611;-67
2022/04/08 00:49:44;;;;;;;2.37;1.10;;;6.50;99.90;;;;;;5072233;28;20290;-68
2022/04/08 00:52:10;;;;;;;1.60;1.03;;;6.40;99.90;;;;;;5073463;28;20238;-67
2022/04/08 00:54:37;;;;;;;2.50;1.00;;;6.40;99.90;;;;;;5076702;28;20554;-64
2022/04/08 00:57:03;;;;;;;3.77;0.90;;;6.40;99.90;;;;;;5071835;28;20184;-66
2022/04/08 00:59:30;;;;;;;2.03;0.77;;;6.40;99.90;;;;;;5075030;28;20216;-66
2022/04/08 01:01:59;;;;;;;2.77;1.23;;;6.30;99.90;;;;;;5070366;28;20178;-67
2022/04/08 01:04:27;;;;;;;2.63;0.80;;;6.20;99.90;;;;;;5077089;28;20207;-66
2022/04/08 01:06:54;;;;;;;0.60;0.60;;;6.20;99.90;;;;;;5071021;28;20260;-65
2022/04/08 01:09:21;;;;;;;1.43;0.63;;;6.20;99.90;;;;;;5072389;28;20204;-67
2022/04/08 01:11:47;;;;;;;1.23;0.67;;;6.10;99.90;;;;;;5076597;28;20182;-65
2022/04/08 01:14:15;;;;;;;2.20;0.60;;;6.10;99.90;;;;;;5075560;28;20185;-65
2022/04/08 01:16:41;;;;;;;0.70;0.50;;;6.00;99.90;;;;;;5074177;28;20185;-67
2022/04/08 01:19:07;;;;;;;1.33;0.63;;;6.00;99.90;;;;;;5070001;28;20271;-68
2022/04/08 01:21:33;;;;;;;0.80;0.50;;;6.10;99.90;;;;;;5070228;28;20263;-66
2022/04/08 01:24:00;;;;;;;1.10;0.50;;;6.00;99.90;;;;;;5071775;28;20189;-65
2022/04/08 01:26:26;;;;;;;1.43;0.50;;;6.00;99.90;;;;;;5072682;28;20260;-66
2022/04/08 01:28:53;;;;;;;1.07;0.63;;;6.00;99.90;;;;;;5072262;28;20239;-67
2022/04/08 01:31:19;;;;;;;0.53;0.40;;;6.00;99.90;;;;;;5073444;28;20180;-66
2022/04/08 01:33:45;;;;;;;1.37;0.67;;;6.00;99.90;;;;;;5070656;28;20180;-66
2022/04/08 01:36:10;;;;;;;0.60;0.60;;;5.90;99.90;;;;;;5070312;28;20177;-66
2022/04/08 01:38:36;;;;;;;1.47;0.80;;;5.90;99.90;;;;;;5073983;28;20240;-65
2022/04/08 01:41:02;;;;;;;1.67;1.37;;;6.00;99.90;;;;;;5069622;28;20182;-68
2022/04/08 01:43:28;;;;;;;1.07;0.90;;;6.00;99.90;;;;;;5078265;28;20191;-67
2022/04/08 01:45:53;;;;;;;2.77;1.20;;;6.00;99.90;;;;;;5075194;28;20181;-66
2022/04/08 01:48:19;;;;;;;3.97;1.13;;;6.00;99.90;;;;;;5068804;28;20212;-69
2022/04/08 01:50:45;;;;;;;1.47;0.80;;;6.00;99.90;;;;;;5072427;28;20591;-67
2022/04/08 01:53:13;;;;;;;3.50;1.53;;;6.00;99.90;;;;;;5075856;28;20189;-66
2022/04/08 01:55:39;;;;;;;1.47;1.00;;;6.00;99.90;;;;;;5076574;28;20177;-67
2022/04/08 01:58:05;;;;;;;3.27;1.10;;;6.10;99.90;;;;;;5074350;28;20227;-65
2022/04/08 02:00:31;;;;;;;2.83;1.20;;;6.10;99.90;;;;;;5079139;28;20240;-66
2022/04/08 02:02:57;;;;;;;2.03;1.20;;;6.00;99.90;;;;;;5078223;28;20263;-68
2022/04/08 02:05:23;;;;;;;2.07;0.90;;;6.00;99.90;;;;;;5076942;28;20174;-67
2022/04/08 02:07:49;;;;;;;2.00;0.80;;;6.00;99.90;;;;;;5077318;28;20184;-69
2022/04/08 02:10:14;;;;;;;0.90;0.70;;;5.90;99.90;;;;;;5074100;28;20640;-67
2022/04/08 02:12:40;;;;;;;3.37;0.77;;;5.80;99.90;;;;;;5077794;28;20555;-67
2022/04/08 02:15:07;;;;;;;0.53;0.53;;;5.80;99.90;;;;;;5077536;28;20192;-66
2022/04/08 02:17:33;;;;;;;0.50;0.47;;;5.80;99.90;;;;;;5076774;28;20189;-65
2022/04/08 02:19:59;;;;;;;0.30;0.30;;;5.70;99.90;;;;;;5077627;28;20636;-67
2022/04/08 02:22:25;;;;;;;3.33;0.60;;;5.60;99.90;;;;;;5080255;28;20186;-64
2022/04/08 02:24:51;;;;;;;1.07;0.60;;;5.60;99.90;;;;;;5080119;28;20215;-65
2022/04/08 02:27:18;;;;;;;1.40;0.50;;;5.50;99.90;;;;;;5077002;28;20188;-66
2022/04/08 02:29:44;;;;;;;2.73;0.53;;;5.50;99.90;;;;;;5078177;28;20212;-66
2022/04/08 02:32:10;;;;;;;0.50;0.43;;;5.50;99.90;;;;;;5080095;28;20197;-67
2022/04/08 02:34:39;;;;;;;1.17;0.40;;;5.50;99.90;;;;;;5076456;28;20185;-66
2022/04/08 02:37:05;;;;;;;1.77;0.57;;;5.50;99.90;;;;;;5074679;28;20211;-67
2022/04/08 02:39:32;;;;;;;0.83;0.30;;;5.50;99.90;;;;;;5074134;28;20266;-66
2022/04/08 02:42:01;;;;;;;2.27;0.80;;;5.60;99.90;;;;;;5077083;28;20188;-66
2022/04/08 02:44:26;;;;;;;0.70;0.43;;;5.50;99.90;;;;;;5077429;28;20177;-65
2022/04/08 02:46:52;;;;;;;0.70;0.40;;;5.60;99.90;;;;;;5073478;28;20180;-65
2022/04/08 02:49:17;;;;;;;0.40;0.40;;;5.50;99.90;;;;;;5076439;28;20214;-67
2022/04/08 02:51:43;;;;;;;0.73;0.60;;;5.40;99.90;;;;;;5076707;28;20190;-67
2022/04/08 02:54:10;;;;;;;1.53;0.53;;;5.40;99.90;;;;;;5075153;28;20191;-64
2022/04/08 02:56:39;;;;;;;0.87;0.53;;;5.40;99.90;;;;;;5077217;28;20258;-67
2022/04/08 02:59:04;;;;;;;2.03;0.80;;;5.40;99.90;;;;;;5082622;28;20299;-65
2022/04/08 03:01:30;;;;;;;0.97;0.50;;;5.30;99.90;;;;;;5072432;28;20717;-68
2022/04/08 03:03:55;;;;;;;1.77;0.60;;;5.30;99.90;;;;;;5072531;28;20548;-66
2022/04/08 03:06:21;;;;;;;2.47;0.80;;;5.30;99.90;;;;;;5065818;28;20197;-66
2022/04/08 03:08:46;;;;;;;2.67;0.90;;;5.30;99.90;;;;;;5072654;28;20308;-67
2022/04/08 03:11:12;;;;;;;2.53;0.90;;;5.30;99.90;;;;;;5069483;28;20192;-66
2022/04/08 03:13:38;;;;;;;1.10;0.50;;;5.30;99.90;;;;;;5065259;28;20197;-66
2022/04/08 03:16:04;;;;;;;1.37;0.73;;;5.30;99.90;;;;;;5072596;28;20184;-67
2022/04/08 03:18:30;;;;;;;1.93;0.70;;;5.40;99.90;;;;;;5069925;28;20688;-68
2022/04/08 03:20:55;;;;;;;2.33;0.73;;;5.30;99.90;;;;;;5064231;28;20255;-66
2022/04/08 03:23:21;;;;;;;1.03;0.60;;;5.30;99.90;;;;;;5063865;28;20296;-65
2022/04/08 03:25:47;;;;;;;1.70;0.73;;;5.20;99.90;;;;;;5065752;28;20189;-68
2022/04/08 03:28:12;;;;;;;1.67;0.70;;;5.20;99.90;;;;;;5064566;28;20685;-64
2022/04/08 03:30:38;;;;;;;3.90;1.13;;;5.20;99.90;;;;;;5073033;28;20196;-67
2022/04/08 03:33:04;;;;;;;4.17;1.30;;;5.20;99.90;;;;;;5066691;28;20196;-67
2022/04/08 03:35:30;;;;;;;1.23;0.90;;;5.30;99.90;;;;;;5066236;28;20204;-67
2022/04/08 03:37:56;;;;;;;4.40;1.00;;;5.30;99.90;;;;;;5069110;28;20283;-65
2022/04/08 03:40:21;;;;;;;1.83;0.73;;;5.30;99.90;;;;;;5069498;28;20231;-66
2022/04/08 03:42:47;;;;;;;2.90;0.93;;;5.30;99.90;;;;;;5078608;28;20263;-67
2022/04/08 03:45:13;;;;;;;1.00;0.90;;;5.40;99.90;;;;;;5068205;28;20189;-66
2022/04/08 03:47:39;;;;;;;1.53;0.93;;;5.40;99.90;;;;;;5066158;28;20189;-67
2022/04/08 03:50:05;;;;;;;1.43;1.00;;;5.40;99.90;;;;;;5064787;28;20693;-67
2022/04/08 03:52:34;;;;;;;2.83;0.83;;;5.40;99.90;;;;;;5065411;28;20573;-68
2022/04/08 03:55:02;;;;;;;2.70;0.97;;;5.50;99.90;;;;;;5065021;28;20648;-66
2022/04/08 03:57:28;;;;;;;1.17;0.73;;;5.50;99.90;;;;;;5064209;28;20221;-67
2022/04/08 03:59:53;;;;;;;3.23;1.10;;;5.50;99.90;;;;;;5064866;28;20232;-66
2022/04/08 04:02:20;;;;;;;1.03;0.70;;;5.40;99.90;;;;;;5069492;28;20186;-65
2022/04/08 04:04:45;;;;;;;1.60;0.73;;;5.40;99.90;;;;;;5068394;28;20213;-67
2022/04/08 04:07:11;;;;;;;2.53;0.83;;;5.40;99.90;;;;;;5064048;28;20270;-68
2022/04/08 04:09:37;;;;;;;1.80;0.80;;;5.40;99.90;;;;;;5072011;28;20228;-65
2022/04/08 04:12:03;;;;;;;2.50;0.80;;;5.40;99.90;;;;;;5067908;28;20185;-66
2022/04/08 04:14:29;;;;;;;3.10;0.87;;;5.50;99.90;;;;;;5064112;28;20189;-68
2022/04/08 04:16:54;;;;;;;1.17;0.80;;;5.50;99.90;;;;;;5063296;28;20189;-67
2022/04/08 04:19:20;;;;;;;3.93;1.00;;;5.50;99.90;;;;;;5064281;28;20667;-67
2022/04/08 04:21:47;;;;;;;1.63;0.93;;;5.40;99.90;;;;;;5064849;28;20195;-69
2022/04/08 04:24:14;;;;;;;1.30;0.80;;;5.40;99.90;;;;;;5064480;28;20200;-65
2022/04/08 04:26:40;;;;;;;0.93;0.60;;;5.40;99.90;;;;;;5063892;28;20181;-67
2022/04/08 04:29:06;;;;;;;1.47;0.60;;;5.40;99.90;;;;;;5064256;28;20212;-67
2022/04/08 04:31:31;;;;;;;7.20;2.27;;;5.40;99.90;;;;;;5064584;28;20569;-68
2022/04/08 04:33:57;;;;;;;1.40;0.80;;;5.40;99.90;;;;;;5068073;28;20298;-67
2022/04/08 04:36:23;;;;;;;2.57;0.73;;;5.40;99.90;;;;;;5075727;28;20196;-67
2022/04/08 04:38:49;;;;;;;2.40;1.10;;;5.40;99.90;;;;;;5075897;28;20679;-67
2022/04/08 04:41:15;;;;;;;1.27;0.90;;;5.30;99.90;;;;;;5072345;28;20193;-66
2022/04/08 04:43:41;;;;;;;1.00;0.60;;;5.20;99.90;;;;;;5074278;28;20181;-66
2022/04/08 04:46:07;;;;;;;0.67;0.60;;;5.10;99.90;;;;;;5075615;28;20540;-66
2022/04/08 04:48:33;;;;;;;0.77;0.60;;;5.10;99.90;;;;;;5075154;28;20197;-66
2022/04/08 04:50:58;;;;;;;1.23;0.50;;;5.10;99.90;;;;;;5075298;28;20667;-69
2022/04/08 04:53:24;;;;;;;0.67;0.50;;;5.10;99.90;;;;;;5075466;28;20817;-65
2022/04/08 04:55:50;;;;;;;1.07;0.50;;;5.10;99.90;;;;;;5069722;28;20712;-67
2022/04/08 04:58:15;;;;;;;2.30;0.60;;;5.20;99.90;;;;;;5071293;28;20271;-68
2022/04/08 05:00:41;;;;;;;0.70;0.60;;;5.10;99.90;;;;;;5077225;28;20211;-66
2022/04/08 05:03:08;;;;;;;2.30;0.60;;;5.10;99.90;;;;;;5074705;28;20546;-67
2022/04/08 05:05:34;;;;;;;0.40;0.40;;;5.10;99.90;;;;;;5079055;28;20173;-68
2022/04/08 05:08:04;;;;;;;1.03;0.47;;;5.10;99.90;;;;;;5071814;28;20212;-67
2022/04/08 05:10:31;;;;;;;0.57;0.50;;;5.20;99.90;;;;;;5068504;28;20185;-66
2022/04/08 05:12:59;;;;;;;1.70;0.80;;;5.20;99.90;;;;;;5074044;28;20181;-66
2022/04/08 05:15:26;;;;;;;1.90;0.60;;;5.20;99.90;;;;;;5073622;28;20596;-65
2022/04/08 05:17:52;;;;;;;0.37;0.37;;;5.20;99.90;;;;;;5076695;28;20178;-65
2022/04/08 05:20:18;;;;;;;1.23;0.60;;;5.30;99.90;;;;;;5073430;28;20215;-65
2022/04/08 05:22:44;;;;;;;0.37;0.37;;;5.30;99.90;;;;;;5073660;28;20192;-65
2022/04/08 05:25:10;;;;;;;0.67;0.43;;;5.20;99.90;;;;;;5077035;28;20178;-67
2022/04/08 05:27:37;;;;;;;0.30;0.30;;;5.10;99.90;;;;;;5077854;28;20186;-67
2022/04/08 05:30:12;;;;;;;0.20;0.20;;;4.60;99.90;;;;;;5080484;28;20640;-67
2022/04/08 05:32:38;;;;;;;0.37;0.30;;;4.40;99.90;;;;;;5077575;28;20200;-66
2022/04/08 05:35:05;;;;;;;0.30;0.30;;;4.30;99.90;;;;;;5078145;28;20185;-67
2022/04/08 05:37:30;;;;;;;0.50;0.50;;;4.30;99.90;;;;;;5081248;28;20193;-66
2022/04/08 05:39:56;;;;;;;0.30;0.30;;;4.30;99.90;;;;;;5075436;28;20700;-66
2022/04/08 05:42:23;;;;;;;0.50;0.50;;;4.30;99.90;;;;;;5079499;28;20193;-66
2022/04/08 05:44:48;;;;;;;0.97;0.53;;;4.40;99.90;;;;;;5080004;28;20212;-66
2022/04/08 05:47:14;;;;;;;0.73;0.63;;;4.50;99.90;;;;;;5076430;28;20189;-65
2022/04/08 05:49:40;;;;;;;1.00;0.80;;;4.50;99.90;;;;;;5079534;28;20562;-66
2022/04/08 05:52:06;;;;;;;2.40;0.77;;;4.50;99.90;;;;;;5079783;28;20262;-65
2022/04/08 05:54:31;;;;;;;0.90;0.73;;;4.70;99.90;;;;;;5074594;28;20547;-67
2022/04/08 05:57:01;;;;;;;3.43;0.90;;;4.90;99.90;;;;;;5068158;28;20197;-66
2022/04/08 05:59:29;;;;;;;1.80;0.73;;;5.10;99.90;;;;;;5073814;28;20208;-67
2022/04/08 06:01:55;;;;;;;0.60;0.40;;;5.10;99.90;;;;;;5071449;28;20193;-66
2022/04/08 06:04:21;;;;;;;0.43;0.37;;;5.10;99.90;;;;;;5075588;28;20188;-66
2022/04/08 06:06:47;;;;;;;0.90;0.40;;;5.00;99.90;;;;;;5073490;28;20643;-65
2022/04/08 06:09:13;;;;;;;3.93;1.03;;;5.00;99.90;;;;;;5072287;28;20205;-68
2022/04/08 06:11:41;;;;;;;2.87;0.63;;;4.80;99.90;;;;;;5070342;28;20200;-66
2022/04/08 06:14:07;;;;;;;0.67;0.40;;;4.90;99.90;;;;;;5077851;28;20342;-67
2022/04/08 06:16:33;;;;;;;1.77;0.60;;;4.90;99.90;;;;;;5069199;28;20280;-66
2022/04/08 06:18:58;;;;;;;0.83;0.40;;;5.00;99.90;;;;;;5071943;28;20208;-66
2022/04/08 06:21:24;;;;;;;1.07;0.40;;;5.00;99.90;;;;;;5069707;28;20182;-64
2022/04/08 06:23:51;;;;;;;1.23;0.57;;;5.00;99.90;;;;;;5075807;28;20196;-66
2022/04/08 06:26:17;;;;;;;1.97;0.50;;;5.10;99.90;;;;;;5073838;28;20181;-67
2022/04/08 06:28:42;;;;;;;1.40;0.50;;;5.50;99.90;;;;;;5070480;28;20711;-65
2022/04/08 06:31:10;;;;;;;2.43;0.60;;;5.80;99.90;;;;;;5076366;28;20199;-67
2022/04/08 06:33:36;;;;;;;0.83;0.47;;;6.40;99.90;;;;;;5074662;28;20533;-68
2022/04/08 06:36:01;;;;;;;0.60;0.40;;;6.50;99.90;;;;;;5064769;28;20196;-67
2022/04/08 06:38:27;;;;;;;2.07;0.40;;;6.50;99.90;;;;;;5069836;28;20228;-68
2022/04/08 06:40:52;;;;;;;2.63;0.47;;;6.30;99.90;;;;;;5069219;28;20284;-67
2022/04/08 06:43:18;;;;;;;2.43;0.80;;;6.00;99.90;;;;;;5078290;28;20185;-66
2022/04/08 06:45:44;;;;;;;2.60;0.80;;;6.00;99.90;;;;;;5066063;28;20191;-66
2022/04/08 06:48:09;;;;;;;1.20;0.60;;;6.10;99.90;;;;;;5066017;28;20209;-68
2022/04/08 06:50:35;;;;;;;3.83;0.90;;;6.10;99.90;;;;;;5073062;28;20212;-66
2022/04/08 06:53:02;;;;;;;1.83;0.60;;;6.00;99.90;;;;;;5071102;28;20190;-68
2022/04/08 06:55:29;;;;;;;2.53;0.80;;;5.90;99.90;;;;;;5075472;28;20193;-67
2022/04/08 06:58:00;;;;;;;1.87;0.80;;;6.00;99.90;;;;;;5072044;28;20193;-67
2022/04/08 07:00:27;;;;;;;1.90;0.77;;;6.30;99.90;;;;;;5072143;28;20259;-65
2022/04/08 07:02:52;;;;;;;1.90;0.80;;;6.40;99.90;;;;;;5073462;28;20639;-68
2022/04/08 07:05:18;;;;;;;1.83;0.80;;;6.30;99.90;;;;;;5071603;28;20208;-68
2022/04/08 07:07:46;;;;;;;3.27;1.03;;;6.20;99.90;;;;;;5075786;28;20186;-67
2022/04/08 07:10:13;;;;;;;1.77;0.60;;;6.10;99.90;;;;;;5064481;28;20616;-66
2022/04/08 07:12:38;;;;;;;3.27;0.93;;;6.30;99.90;;;;;;5065864;28;20227;-66
2022/04/08 07:15:05;;;;;;;2.13;0.60;;;6.30;99.90;;;;;;5067055;28;20581;-66
2022/04/08 07:17:31;;;;;;;2.20;1.10;;;6.20;99.90;;;;;;5066938;28;20190;-67
2022/04/08 07:19:57;;;;;;;3.47;0.77;;;6.10;99.90;;;;;;5066094;28;20221;-68
2022/04/08 07:22:24;;;;;;;1.57;1.10;;;6.00;99.90;;;;;;5072881;28;20185;-67
2022/04/08 07:24:50;;;;;;;8.27;1.27;;;5.90;99.90;;;;;;5076482;28;20209;-65
2022/04/08 07:27:17;;;;;;;4.57;1.00;;;6.10;99.90;;;;;;5066648;28;20182;-69
2022/04/08 07:29:43;;;;;;;2.13;0.80;;;6.20;99.90;;;;;;5071670;28;20240;-66
2022/04/08 07:32:09;;;;;;;5.23;1.00;;;6.20;99.90;;;;;;5067994;28;20267;-65
2022/04/08 07:34:36;;;;;;;2.50;0.80;;;6.30;99.90;;;;;;5067204;28;20189;-66
2022/04/08 07:37:02;;;;;;;1.60;0.90;;;6.40;99.90;;;;;;5066864;28;20196;-67
2022/04/08 07:39:30;;;;;;;4.80;1.20;;;6.40;99.90;;;;;;5069136;28;20235;-68
2022/04/08 07:41:58;;;;;;;4.33;1.40;;;6.50;99.90;;;;;;5074938;28;20185;-69
2022/04/08 07:44:24;;;;;;;4.57;1.20;;;6.60;99.90;;;;;;5065744;28;20277;-69
2022/04/08 07:46:49;;;;;;;5.40;1.70;;;6.70;99.90;;;;;;5071205;28;20555;-68
2022/04/08 07:49:16;;;;;;;2.80;0.90;;;6.50;99.90;;;;;;5065123;28;20209;-67
2022/04/08 07:51:42;;;;;;;1.90;0.80;;;6.20;99.90;;;;;;5063156;28;20615;-69
2022/04/08 07:54:08;;;;;;;3.70;0.97;;;6.10;99.90;;;;;;5061815;28;20197;-68
2022/04/08 07:56:35;;;;;;;2.57;1.20;;;6.10;99.90;;;;;;5069945;28;20192;-66
2022/04/08 07:59:03;;;;;;;2.67;1.13;;;6.20;99.90;;;;;;5068034;28;20206;-67
2022/04/08 08:01:29;;;;;;;3.50;1.23;;;6.20;99.90;;;;;;5074737;28;20220;-68
2022/04/08 08:03:55;;;;;;;3.20;1.33;;;6.30;99.90;;;;;;5062010;28;20296;-67
2022/04/08 08:06:20;;;;;;;3.67;1.30;;;6.40;99.90;;;;;;5070990;28;20185;-67
2022/04/08 08:08:46;;;;;;;6.30;1.70;;;6.60;99.90;;;;;;5076488;28;20216;-67
2022/04/08 08:11:13;;;;;;;2.57;1.30;;;6.70;99.90;;;;;;5073059;28;20261;-69
2022/04/08 08:13:39;;;;;;;3.87;1.30;;;6.70;99.90;;;;;;5075675;28;20713;-66
2022/04/08 08:16:07;;;;;;;4.67;1.10;;;6.70;99.90;;;;;;5054391;28;20652;-69
2022/04/08 08:18:33;;;;;;;3.03;1.30;;;6.60;99.90;;;;;;5056318;28;20212;-69
2022/04/08 08:20:58;;;;;;;3.50;0.93;;;6.50;99.90;;;;;;5068974;28;20664;-67
2022/04/08 08:23:24;;;;;;;3.63;1.40;;;6.40;99.90;;;;;;5070002;28;20189;-68
2022/04/08 08:25:49;;;;;;;4.30;1.30;;;6.40;99.90;;;;;;5069372;28;20562;-67
2022/04/08 08:28:15;;;;;;;2.53;0.90;;;6.40;99.90;;;;;;5065229;28;20259;-67
2022/04/08 08:30:41;;;;;;;2.80;1.03;;;6.40;99.90;;;;;;5066357;28;20204;-65
2022/04/08 08:33:06;;;;;;;2.13;1.00;;;6.70;99.90;;;;;;5075152;28;20195;-66
2022/04/08 08:35:33;;;;;;;5.83;1.40;;;7.00;99.90;;;;;;5068109;28;20649;-67
2022/04/08 08:38:00;;;;;;;4.67;1.13;;;7.10;99.90;;;;;;5061690;28;20350;-68
2022/04/08 08:40:32;;;;;;;2.37;1.30;;;7.00;99.90;;;;;;5066962;28;20691;-68
2022/04/08 08:43:01;;;;;;;4.50;1.50;;;7.00;99.90;;;;;;5066031;28;20195;-67
2022/04/08 08:45:34;;;;;;;5.30;1.20;;;7.10;99.90;;;;;;5064574;28;20534;-67
2022/04/08 08:48:04;;;;;;;4.67;1.20;;;7.10;99.90;;;;;;5062048;28;20725;-66
2022/04/08 08:50:30;;;;;;;5.27;1.63;;;7.30;99.90;;;;;;5066364;28;20181;-65
2022/04/08 08:52:57;;;;;;;2.93;1.40;;;7.70;99.90;;;;;;5067197;28;20468;-69
2022/04/08 08:55:24;;;;;;;2.43;1.10;;;8.20;99.90;;;;;;5070681;28;20220;-66
2022/04/08 08:57:52;;;;;;;2.37;1.00;;;8.60;99.90;;;;;;5069273;28;20809;-68
2022/04/08 09:00:19;;;;;;;5.43;0.83;;;8.70;99.90;;;;;;5073949;28;20452;-66
2022/04/08 09:02:49;;;;;;;2.13;0.70;;;8.60;99.90;;;;;;5076032;28;20177;-68
2022/04/08 09:05:21;;;;;;;2.80;0.90;;;8.50;99.90;;;;;;5066031;28;20187;-66
2022/04/08 09:08:00;;;;;;;2.67;0.93;;;8.50;99.90;;;;;;5065711;28;20570;-69
2022/04/08 09:10:28;;;;;;;3.50;1.13;;;8.30;99.90;;;;;;5067458;28;20177;-68
2022/04/08 09:12:55;;;;;;;1.93;0.90;;;8.10;99.90;;;;;;5073594;28;20667;-68
2022/04/08 09:15:21;;;;;;;2.07;0.70;;;7.90;99.90;;;;;;5068098;28;20173;-68
2022/04/08 09:17:47;;;;;;;2.70;1.10;;;7.90;99.90;;;;;;5068004;28;20216;-67
2022/04/08 09:20:12;;;;;;;2.13;0.73;;;7.90;99.90;;;;;;5072197;28;20205;-70
2022/04/08 09:22:38;;;;;;;1.70;0.93;;;7.90;99.90;;;;;;5066029;28;20181;-65
2022/04/08 09:25:12;;;;;;;3.13;0.90;;;8.00;99.90;;;;;;5070441;28;20265;-68
2022/04/08 09:27:38;;;;;;;1.93;0.90;;;8.20;99.90;;;;;;5065660;28;20190;-68
2022/04/08 09:30:05;;;;;;;1.70;0.70;;;8.40;99.90;;;;;;5069525;28;20213;-68
2022/04/08 09:32:30;;;;;;;2.60;0.77;;;8.40;99.90;;;;;;5071949;28;20181;-67
2022/04/08 09:34:57;;;;;;;2.27;1.20;;;8.40;99.90;;;;;;5064058;28;20239;-67
2022/04/08 09:37:23;;;;;;;2.93;1.03;;;8.30;99.90;;;;;;5061490;28;20217;-67
2022/04/08 09:39:57;;;;;;;2.97;0.60;;;8.20;99.90;;;;;;5074922;28;20305;-68
2022/04/08 09:42:24;;;;;;;5.23;0.90;;;8.00;99.90;;;;;;5070786;28;20192;-66
2022/04/08 09:44:54;;;;;;;1.63;0.80;;;8.00;99.90;;;;;;5066462;28;20185;-68
2022/04/08 09:47:19;;;;;;;2.53;0.90;;;8.40;99.90;;;;;;5067085;28;20349;-67
2022/04/08 09:49:45;;;;;;;2.47;0.80;;;8.50;99.90;;;;;;5073619;28;20208;-69
2022/04/08 09:52:13;;;;;;;2.10;0.57;;;8.70;99.90;;;;;;5070022;28;20360;-66
2022/04/08 09:54:42;;;;;;;2.40;1.13;;;8.90;99.90;;;;;;5078111;28;20189;-66
2022/04/08 09:57:17;;;;;;;2.23;0.70;;;9.00;99.90;;;;;;5071085;28;20189;-67
2022/04/08 09:59:45;;;;;;;2.13;0.90;;;8.80;99.90;;;;;;5068934;28;20212;-67
2022/04/08 10:02:13;;;;;;;2.07;0.97;;;8.60;99.90;;;;;;5069883;28;20173;-68
2022/04/08 10:04:39;;;;;;;1.63;0.80;;;8.50;99.90;;;;;;5070815;28;20238;-67
2022/04/08 10:07:05;;;;;;;2.10;0.60;;;8.40;99.90;;;;;;5070505;28;20272;-66
2022/04/08 10:09:38;;;;;;;2.83;1.00;;;8.50;99.90;;;;;;5069249;28;21109;-66
2022/04/08 10:12:43;;;;;;;1.50;0.57;;;8.50;99.90;;;;;;5068731;28;20181;-66
2022/04/08 10:15:23;;;;;;;2.83;1.13;;;8.50;99.90;;;;;;5055260;28;20201;-68
2022/04/08 10:18:00;;;;;;;1.87;0.80;;;8.80;99.90;;;;;;5071228;28;20705;-67
2022/04/08 10:20:28;;;;;;;1.63;0.93;;;9.20;99.90;;;;;;5068211;28;20209;-69
2022/04/08 10:23:18;;;;;;;2.73;0.80;;;9.40;99.90;;;;;;5075021;28;20185;-66
2022/04/08 10:25:50;;;;;;;1.73;0.80;;;9.50;99.90;;;;;;5074740;28;20277;-67
2022/04/08 10:28:15;;;;;;;1.90;1.10;;;9.40;99.90;;;;;;5066038;28;20201;-66
2022/04/08 10:30:49;;;;;;;3.63;1.00;;;9.20;99.90;;;;;;5074128;28;20196;-70
2022/04/08 10:33:29;;;;;;;2.60;0.90;;;9.00;99.90;;;;;;5072168;28;20181;-68
2022/04/08 10:35:59;;;;;;;2.37;0.90;;;9.10;99.90;;;;;;5074728;28;20337;-68
2022/04/08 10:38:35;;;;;;;2.83;1.23;;;8.90;99.90;;;;;;5071127;28;20274;-68
2022/04/08 10:41:01;;;;;;;2.07;0.77;;;8.90;99.90;;;;;;5073336;28;20208;-67
2022/04/08 10:43:28;;;;;;;3.03;0.80;;;9.10;99.90;;;;;;5074190;28;20197;-67
2022/04/08 10:45:56;;;;;;;2.77;0.80;;;9.10;99.90;;;;;;5071830;28;20185;-68
2022/04/08 10:48:30;;;;;;;3.83;1.10;;;9.20;99.90;;;;;;5068334;28;20205;-67
2022/04/08 10:51:05;;;;;;;2.33;0.70;;;9.20;99.90;;;;;;5071295;28;20196;-67
2022/04/08 10:53:34;;;;;;;3.17;0.83;;;9.20;99.90;;;;;;5074528;28;20692;-68
2022/04/08 10:56:08;;;;;;;2.23;1.00;;;9.30;99.90;;;;;;5072550;28;20185;-69
2022/04/08 10:58:38;;;;;;;2.00;0.90;;;9.30;99.90;;;;;;5072122;28;20295;-67
2022/04/08 11:01:15;;;;;;;3.20;1.20;;;9.40;99.90;;;;;;5068788;28;20215;-67
2022/04/08 11:03:46;;;;;;;1.57;0.83;;;9.40;99.90;;;;;;5075061;28;20633;-68
2022/04/08 11:06:14;;;;;;;2.07;0.90;;;9.20;99.90;;;;;;5074932;28;20191;-67
2022/04/08 11:08:39;;;;;;;1.60;0.80;;;9.10;99.90;;;;;;5075904;28;20605;-68
2022/04/08 11:11:05;;;;;;;1.93;0.90;;;8.80;99.90;;;;;;5073294;28;20243;-66
2022/04/08 11:13:31;;;;;;;2.10;0.93;;;8.80;99.90;;;;;;5069039;28;20284;-68
2022/04/08 11:15:57;;;;;;;3.10;1.17;;;8.80;99.90;;;;;;5074343;28;20184;-66
2022/04/08 11:18:25;;;;;;;4.30;1.40;;;8.90;99.90;;;;;;5070877;28;20204;-67
2022/04/08 11:20:51;;;;;;;3.30;1.00;;;9.10;99.90;;;;;;5066300;28;20304;-70
2022/04/08 11:23:27;;;;;;;1.03;0.80;;;9.10;99.90;;;;;;5063281;28;20489;-68
2022/04/08 11:25:53;;;;;;;3.87;0.97;;;9.50;99.90;;;;;;5068516;28;20238;-66
2022/04/08 11:28:21;;;;;;;3.33;1.20;;;9.70;99.90;;;;;;5062365;28;20205;-67
2022/04/08 11:30:53;;;;;;;5.27;1.40;;;9.70;99.90;;;;;;5053091;28;20189;-68
2022/04/08 11:33:19;;;;;;;1.30;0.90;;;9.70;99.90;;;;;;5071300;28;20217;-69
2022/04/08 11:35:46;;;;;;;1.73;0.80;;;9.80;99.90;;;;;;5065530;28;20553;-68
2022/04/08 11:38:17;;;;;;;2.40;1.00;;;10.00;99.90;;;;;;5067842;28;20752;-68
2022/04/08 11:40:44;;;;;;;3.20;0.97;;;10.00;99.90;;;;;;5070775;28;20227;-66
2022/04/08 11:43:17;;;;;;;1.73;0.90;;;10.30;99.90;;;;;;5055060;28;20549;-67
2022/04/08 11:45:47;;;;;;;1.30;0.70;;;10.60;99.90;;;;;;5065500;28;20185;-66
2022/04/08 11:48:15;;;;;;;1.70;1.20;;;10.70;99.90;;;;;;5044907;28;20208;-68
2022/04/08 11:50:42;;;;;;;3.90;1.00;;;10.90;99.90;;;;;;5056925;28;20196;-68
2022/04/08 11:53:14;;;;;;;2.60;0.90;;;11.10;99.90;;;;;;5064795;28;20197;-67
2022/04/08 11:55:40;;;;;;;3.80;1.13;;;11.20;99.90;;;;;;5067084;28;20185;-67
2022/04/08 11:58:17;;;;;;;1.63;0.97;;;11.30;99.90;;;;;;5069538;28;20572;-66
2022/04/08 12:00:43;;;;;;;2.33;0.90;;;11.20;99.90;;;;;;5071117;28;20210;-67
2022/04/08 12:03:09;;;;;;;1.10;1.00;;;10.70;99.90;;;;;;5076655;28;20193;-68
2022/04/08 12:05:44;;;;;;;1.80;1.53;;;10.40;99.90;;;;;;5071541;28;20189;-66
2022/04/08 12:08:11;;;;;;;2.63;1.20;;;9.90;99.90;;;;;;5071337;28;20213;-68
2022/04/08 12:10:37;;;;;;;1.47;1.10;;;9.70;99.90;;;;;;5074082;28;20192;-69
2022/04/08 12:13:16;;;;;;;1.47;1.10;;;9.60;99.90;;;;;;5069121;28;20281;-69
2022/04/08 12:15:48;;;;;;;2.27;1.47;;;9.40;99.90;;;;;;5073284;28;20185;-68
2022/04/08 12:18:23;;;;;;;2.27;1.07;;;9.30;99.90;;;;;;5068772;28;20202;-67
2022/04/08 12:20:57;;;;;;;2.40;1.07;;;9.20;99.90;;;;;;5076156;28;20822;-67
2022/04/08 12:23:25;;;;;;;4.43;1.30;;;9.10;99.90;;;;;;5074273;28;20196;-67
2022/04/08 12:25:52;;;;;;;3.20;1.13;;;9.10;99.90;;;;;;5073536;28;20177;-68
2022/04/08 12:28:18;;;;;;;1.43;1.00;;;9.20;99.90;;;;;;5073758;28;20686;-68
2022/04/08 12:30:44;;;;;;;4.20;1.60;;;9.30;99.90;;;;;;5073932;28;20238;-66
2022/04/08 12:33:09;;;;;;;1.40;1.10;;;9.50;99.90;;;;;;5078395;28;20580;-68
2022/04/08 12:35:35;;;;;;;4.27;1.30;;;9.60;99.90;;;;;;5072913;28;20221;-66
2022/04/08 12:38:04;;;;;;;3.13;1.20;;;9.60;99.90;;;;;;5066241;28;20245;-67
2022/04/08 12:40:31;;;;;;;2.43;1.23;;;9.60;99.90;;;;;;5068623;28;20194;-66
2022/04/08 12:42:57;;;;;;;1.40;0.90;;;9.50;99.90;;;;;;5071891;28;20762;-67
2022/04/08 12:45:23;;;;;;;2.10;1.30;;;9.40;99.90;;;;;;5074423;28;20168;-68
2022/04/08 12:47:49;;;;;;;2.43;1.30;;;9.50;99.90;;;;;;5074551;28;20181;-70
2022/04/08 12:50:14;;;;;;;1.93;1.30;;;9.90;99.90;;;;;;5062704;28;20184;-66
2022/04/08 12:52:41;;;;;;;4.17;1.10;;;10.20;99.60;;;;;;5064507;28;20531;-66
2022/04/08 12:55:08;;;;;;;1.63;1.27;;;10.20;98.90;;;;;;5071798;28;20249;-64
2022/04/08 12:57:34;;;;;;;2.07;1.40;;;10.10;99.90;;;;;;5075652;28;20184;-69